Terminal Aerodrome Forecast
Issued by NWS

Current Version | Previous Version | Text Only | Print | Product List | Glossary On
Versions: 1 2 3 4 5 6 7 8 9 10 11 12 13 14 15 16 17 18 19 20 21
000
FTUS41 KBTV 301700
TAFSLK
TAF
KSLK 301733Z 3018/3118 22006KT P6SM VCSH SCT045 BKN050
     FM302300 21003KT P6SM VCSH SCT030 BKN060
     FM310800 VRB02KT 5SM BR SCT020 BKN045
     FM311300 22007KT P6SM VCSH BKN040 OVC060=

USA.gov is the U.S. government's official web portal to all federal, state and local government web resources and services.